sensor_id;sensor_type;location;lat;lon;timestamp;P1;durP1;ratioP1;P2;durP2;ratioP2
64623;SDS011;51031;50.912;9.242;2022-09-12T00:00:03;26.13;;;18.23;;
64623;SDS011;51031;50.912;9.242;2022-09-12T00:00:27;33.58;;;22.02;;
64623;SDS011;51031;50.912;9.242;2022-09-12T00:00:46;22.02;;;14.38;;
64623;SDS011;51031;50.912;9.242;2022-09-12T00:01:02;30.63;;;21.25;;
64623;SDS011;51031;50.912;9.242;2022-09-12T00:01:20;24.17;;;16.17;;
64623;SDS011;51031;50.912;9.242;2022-09-12T00:01:37;24.67;;;16.38;;
64623;SDS011;51031;50.912;9.242;2022-09-12T00:01:54;39.42;;;25.67;;
64623;SDS011;51031;50.912;9.242;2022-09-12T00:02:11;34.78;;;22.80;;
64623;SDS011;51031;50.912;9.242;2022-09-12T00:02:26;30.15;;;20.00;;
64623;SDS011;51031;50.912;9.242;2022-09-12T00:02:42;29.20;;;19.17;;
64623;SDS011;51031;50.912;9.242;2022-09-12T00:02:58;24.83;;;16.67;;
64623;SDS011;51031;50.912;9.242;2022-09-12T00:03:14;17.60;;;11.52;;
64623;SDS011;51031;50.912;9.242;2022-09-12T00:03:30;21.00;;;13.98;;
64623;SDS011;51031;50.912;9.242;2022-09-12T00:03:46;18.20;;;11.70;;
64623;SDS011;51031;50.912;9.242;2022-09-12T00:04:03;15.77;;;9.82;;
64623;SDS011;51031;50.912;9.242;2022-09-12T00:04:19;19.67;;;12.52;;
64623;SDS011;51031;50.912;9.242;2022-09-12T00:04:34;27.33;;;17.67;;
64623;SDS011;51031;50.912;9.242;2022-09-12T00:04:50;40.70;;;26.93;;
64623;SDS011;51031;50.912;9.242;2022-09-12T00:05:06;51.47;;;34.85;;
64623;SDS011;51031;50.912;9.242;2022-09-12T00:05:22;46.33;;;31.23;;
64623;SDS011;51031;50.912;9.242;2022-09-12T00:05:41;30.10;;;20.20;;
64623;SDS011;51031;50.912;9.242;2022-09-12T00:05:57;20.38;;;13.23;;
64623;SDS011;51031;50.912;9.242;2022-09-12T00:06:15;14.35;;;9.52;;
64623;SDS011;51031;50.912;9.242;2022-09-12T00:06:33;28.40;;;18.73;;
64623;SDS011;51031;50.912;9.242;2022-09-12T00:06:50;39.25;;;26.25;;
64623;SDS011;51031;50.912;9.242;2022-09-12T00:07:06;22.83;;;14.35;;
64623;SDS011;51031;50.912;9.242;2022-09-12T00:07:22;26.70;;;16.80;;
64623;SDS011;51031;50.912;9.242;2022-09-12T00:07:41;29.38;;;19.23;;
64623;SDS011;51031;50.912;9.242;2022-09-12T00:07:56;15.45;;;9.27;;
64623;SDS011;51031;50.912;9.242;2022-09-12T00:08:13;11.93;;;7.05;;
64623;SDS011;51031;50.912;9.242;2022-09-12T00:08:29;14.05;;;8.90;;
64623;SDS011;51031;50.912;9.242;2022-09-12T00:08:45;10.05;;;6.43;;
64623;SDS011;51031;50.912;9.242;2022-09-12T00:09:03;8.52;;;4.28;;
64623;SDS011;51031;50.912;9.242;2022-09-12T00:09:20;23.95;;;14.88;;
64623;SDS011;51031;50.912;9.242;2022-09-12T00:09:36;23.53;;;15.30;;
64623;SDS011;51031;50.912;9.242;2022-09-12T00:09:52;18.05;;;11.30;;
64623;SDS011;51031;50.912;9.242;2022-09-12T00:10:08;27.85;;;18.13;;
64623;SDS011;51031;50.912;9.242;2022-09-12T00:10:24;21.40;;;14.13;;
64623;SDS011;51031;50.912;9.242;2022-09-12T00:10:41;8.40;;;5.38;;
64623;SDS011;51031;50.912;9.242;2022-09-12T00:10:58;14.68;;;9.43;;
64623;SDS011;51031;50.912;9.242;2022-09-12T00:11:19;12.77;;;7.85;;
64623;SDS011;51031;50.912;9.242;2022-09-12T00:11:36;4.60;;;2.53;;
64623;SDS011;51031;50.912;9.242;2022-09-12T00:11:53;5.65;;;2.53;;
64623;SDS011;51031;50.912;9.242;2022-09-12T00:12:08;6.77;;;3.03;;
64623;SDS011;51031;50.912;9.242;2022-09-12T00:12:24;12.25;;;7.57;;
64623;SDS011;51031;50.912;9.242;2022-09-12T00:12:42;18.38;;;11.90;;
64623;SDS011;51031;50.912;9.242;2022-09-12T00:12:58;31.88;;;21.67;;
64623;SDS011;51031;50.912;9.242;2022-09-12T00:13:15;33.33;;;22.95;;
64623;SDS011;51031;50.912;9.242;2022-09-12T00:13:31;14.87;;;9.67;;
64623;SDS011;51031;50.912;9.242;2022-09-12T00:13:47;6.88;;;3.60;;
64623;SDS011;51031;50.912;9.242;2022-09-12T00:14:03;6.50;;;3.20;;
64623;SDS011;51031;50.912;9.242;2022-09-12T00:14:19;5.82;;;2.70;;
64623;SDS011;51031;50.912;9.242;2022-09-12T00:14:36;5.28;;;2.40;;
64623;SDS011;51031;50.912;9.242;2022-09-12T00:14:51;4.40;;;2.40;;
64623;SDS011;51031;50.912;9.242;2022-09-12T00:15:08;6.15;;;3.28;;
64623;SDS011;51031;50.912;9.242;2022-09-12T00:15:24;7.70;;;4.40;;
64623;SDS011;51031;50.912;9.242;2022-09-12T00:15:41;6.10;;;3.72;;
64623;SDS011;51031;50.912;9.242;2022-09-12T00:15:58;7.57;;;4.68;;
64623;SDS011;51031;50.912;9.242;2022-09-12T00:16:16;8.57;;;4.88;;
64623;SDS011;51031;50.912;9.242;2022-09-12T00:16:34;12.73;;;7.75;;
64623;SDS011;51031;50.912;9.242;2022-09-12T00:16:50;18.15;;;12.10;;
64623;SDS011;51031;50.912;9.242;2022-09-12T00:17:08;15.88;;;10.30;;
64623;SDS011;51031;50.912;9.242;2022-09-12T00:17:23;13.43;;;8.05;;
64623;SDS011;51031;50.912;9.242;2022-09-12T00:17:39;17.13;;;11.00;;
64623;SDS011;51031;50.912;9.242;2022-09-12T00:17:56;12.73;;;7.97;;
64623;SDS011;51031;50.912;9.242;2022-09-12T00:18:12;11.18;;;6.63;;
64623;SDS011;51031;50.912;9.242;2022-09-12T00:18:29;11.60;;;7.20;;
64623;SDS011;51031;50.912;9.242;2022-09-12T00:18:46;22.60;;;15.18;;
64623;SDS011;51031;50.912;9.242;2022-09-12T00:19:03;30.08;;;21.00;;
64623;SDS011;51031;50.912;9.242;2022-09-12T00:19:20;18.00;;;11.90;;
64623;SDS011;51031;50.912;9.242;2022-09-12T00:19:35;21.90;;;14.75;;
64623;SDS011;51031;50.912;9.242;2022-09-12T00:19:51;21.30;;;14.10;;
64623;SDS011;51031;50.912;9.242;2022-09-12T00:20:08;12.88;;;7.45;;
64623;SDS011;51031;50.912;9.242;2022-09-12T00:20:25;10.40;;;5.72;;
64623;SDS011;51031;50.912;9.242;2022-09-12T00:20:42;9.25;;;5.30;;
64623;SDS011;51031;50.912;9.242;2022-09-12T00:21:00;13.27;;;7.87;;
64623;SDS011;51031;50.912;9.242;2022-09-12T00:21:18;11.88;;;7.20;;
64623;SDS011;51031;50.912;9.242;2022-09-12T00:21:36;12.18;;;7.63;;
64623;SDS011;51031;50.912;9.242;2022-09-12T00:21:53;7.28;;;4.18;;
64623;SDS011;51031;50.912;9.242;2022-09-12T00:22:10;11.57;;;7.00;;
64623;SDS011;51031;50.912;9.242;2022-09-12T00:22:26;18.40;;;11.35;;
64623;SDS011;51031;50.912;9.242;2022-09-12T00:22:42;12.52;;;7.05;;
64623;SDS011;51031;50.912;9.242;2022-09-12T00:22:57;9.13;;;5.20;;
64623;SDS011;51031;50.912;9.242;2022-09-12T00:23:13;11.77;;;7.55;;
64623;SDS011;51031;50.912;9.242;2022-09-12T00:23:29;21.20;;;14.38;;
64623;SDS011;51031;50.912;9.242;2022-09-12T00:23:47;29.92;;;20.88;;
64623;SDS011;51031;50.912;9.242;2022-09-12T00:24:03;22.83;;;15.15;;
64623;SDS011;51031;50.912;9.242;2022-09-12T00:24:20;28.70;;;19.25;;
64623;SDS011;51031;50.912;9.242;2022-09-12T00:24:36;28.67;;;19.40;;
64623;SDS011;51031;50.912;9.242;2022-09-12T00:24:55;19.80;;;12.88;;
64623;SDS011;51031;50.912;9.242;2022-09-12T00:25:11;14.73;;;9.80;;
64623;SDS011;51031;50.912;9.242;2022-09-12T00:25:27;12.38;;;7.82;;
64623;SDS011;51031;50.912;9.242;2022-09-12T00:25:45;7.50;;;3.58;;
64623;SDS011;51031;50.912;9.242;2022-09-12T00:26:03;13.32;;;7.25;;
64623;SDS011;51031;50.912;9.242;2022-09-12T00:26:20;26.08;;;16.45;;
64623;SDS011;51031;50.912;9.242;2022-09-12T00:26:37;29.17;;;19.75;;
64623;SDS011;51031;50.912;9.242;2022-09-12T00:26:53;31.90;;;20.92;;
64623;SDS011;51031;50.912;9.242;2022-09-12T00:27:09;27.07;;;14.80;;
64623;SDS011;51031;50.912;9.242;2022-09-12T00:27:25;22.48;;;12.85;;
64623;SDS011;51031;50.912;9.242;2022-09-12T00:27:41;28.50;;;18.92;;
64623;SDS011;51031;50.912;9.242;2022-09-12T00:27:57;21.43;;;13.77;;
64623;SDS011;51031;50.912;9.242;2022-09-12T00:28:16;13.93;;;8.60;;
64623;SDS011;51031;50.912;9.242;2022-09-12T00:28:33;17.08;;;11.73;;
64623;SDS011;51031;50.912;9.242;2022-09-12T00:28:51;23.75;;;15.98;;
64623;SDS011;51031;50.912;9.242;2022-09-12T00:29:07;44.15;;;30.05;;
64623;SDS011;51031;50.912;9.242;2022-09-12T00:29:24;48.92;;;33.92;;
64623;SDS011;51031;50.912;9.242;2022-09-12T00:29:40;41.70;;;29.30;;
64623;SDS011;51031;50.912;9.242;2022-09-12T00:29:56;38.22;;;26.80;;
64623;SDS011;51031;50.912;9.242;2022-09-12T00:30:11;31.93;;;22.13;;
64623;SDS011;51031;50.912;9.242;2022-09-12T00:30:27;30.75;;;20.88;;
64623;SDS011;51031;50.912;9.242;2022-09-12T00:30:43;32.03;;;21.67;;
64623;SDS011;51031;50.912;9.242;2022-09-12T00:31:02;18.48;;;12.40;;
64623;SDS011;51031;50.912;9.242;2022-09-12T00:31:20;19.10;;;12.60;;
64623;SDS011;51031;50.912;9.242;2022-09-12T00:31:38;19.83;;;11.77;;
64623;SDS011;51031;50.912;9.242;2022-09-12T00:31:54;14.75;;;8.40;;
64623;SDS011;51031;50.912;9.242;2022-09-12T00:32:11;23.17;;;14.75;;
64623;SDS011;51031;50.912;9.242;2022-09-12T00:32:27;30.88;;;20.55;;
64623;SDS011;51031;50.912;9.242;2022-09-12T00:32:43;34.03;;;23.95;;
64623;SDS011;51031;50.912;9.242;2022-09-12T00:32:59;47.80;;;34.05;;
64623;SDS011;51031;50.912;9.242;2022-09-12T00:33:16;43.50;;;30.30;;
64623;SDS011;51031;50.912;9.242;2022-09-12T00:33:32;38.78;;;26.75;;
64623;SDS011;51031;50.912;9.242;2022-09-12T00:33:48;40.30;;;27.08;;
64623;SDS011;51031;50.912;9.242;2022-09-12T00:34:04;49.55;;;32.75;;
64623;SDS011;51031;50.912;9.242;2022-09-12T00:34:21;49.78;;;34.10;;
64623;SDS011;51031;50.912;9.242;2022-09-12T00:34:37;37.50;;;25.75;;
64623;SDS011;51031;50.912;9.242;2022-09-12T00:34:53;38.70;;;27.25;;
64623;SDS011;51031;50.912;9.242;2022-09-12T00:35:08;32.73;;;23.43;;
64623;SDS011;51031;50.912;9.242;2022-09-12T00:35:24;28.98;;;20.05;;
64623;SDS011;51031;50.912;9.242;2022-09-12T00:35:41;26.35;;;18.13;;
64623;SDS011;51031;50.912;9.242;2022-09-12T00:35:58;34.38;;;23.42;;
64623;SDS011;51031;50.912;9.242;2022-09-12T00:36:16;33.63;;;23.15;;
64623;SDS011;51031;50.912;9.242;2022-09-12T00:36:33;15.25;;;9.98;;
64623;SDS011;51031;50.912;9.242;2022-09-12T00:36:49;15.93;;;9.50;;
64623;SDS011;51031;50.912;9.242;2022-09-12T00:37:04;28.27;;;18.00;;
64623;SDS011;51031;50.912;9.242;2022-09-12T00:37:20;30.55;;;20.73;;
64623;SDS011;51031;50.912;9.242;2022-09-12T00:37:36;19.17;;;12.57;;
64623;SDS011;51031;50.912;9.242;2022-09-12T00:37:52;19.73;;;12.60;;
64623;SDS011;51031;50.912;9.242;2022-09-12T00:38:08;23.20;;;16.27;;
64623;SDS011;51031;50.912;9.242;2022-09-12T00:38:24;31.17;;;22.00;;
64623;SDS011;51031;50.912;9.242;2022-09-12T00:38:40;43.50;;;30.07;;
64623;SDS011;51031;50.912;9.242;2022-09-12T00:38:56;47.45;;;32.13;;
64623;SDS011;51031;50.912;9.242;2022-09-12T00:39:13;49.88;;;34.38;;
64623;SDS011;51031;50.912;9.242;2022-09-12T00:39:32;45.38;;;30.88;;
64623;SDS011;51031;50.912;9.242;2022-09-12T00:39:47;39.33;;;27.20;;
64623;SDS011;51031;50.912;9.242;2022-09-12T00:40:03;35.73;;;24.90;;
64623;SDS011;51031;50.912;9.242;2022-09-12T00:40:20;39.28;;;26.05;;
64623;SDS011;51031;50.912;9.242;2022-09-12T00:40:36;44.63;;;30.02;;
64623;SDS011;51031;50.912;9.242;2022-09-12T00:40:51;41.38;;;28.30;;
64623;SDS011;51031;50.912;9.242;2022-09-12T00:41:10;34.83;;;23.10;;
64623;SDS011;51031;50.912;9.242;2022-09-12T00:41:31;22.88;;;12.20;;
64623;SDS011;51031;50.912;9.242;2022-09-12T00:41:48;26.50;;;15.32;;
64623;SDS011;51031;50.912;9.242;2022-09-12T00:42:04;34.28;;;21.35;;
64623;SDS011;51031;50.912;9.242;2022-09-12T00:42:21;42.83;;;28.50;;
64623;SDS011;51031;50.912;9.242;2022-09-12T00:42:37;37.97;;;26.43;;
64623;SDS011;51031;50.912;9.242;2022-09-12T00:42:52;35.67;;;25.23;;
64623;SDS011;51031;50.912;9.242;2022-09-12T00:43:09;36.33;;;25.10;;
64623;SDS011;51031;50.912;9.242;2022-09-12T00:43:34;28.30;;;19.17;;
64623;SDS011;51031;50.912;9.242;2022-09-12T00:43:54;57.92;;;40.25;;
64623;SDS011;51031;50.912;9.242;2022-09-12T00:45:02;31.52;;;22.20;;
64623;SDS011;51031;50.912;9.242;2022-09-12T00:45:22;36.40;;;23.67;;
64623;SDS011;51031;50.912;9.242;2022-09-12T00:45:41;31.88;;;21.35;;
64623;SDS011;51031;50.912;9.242;2022-09-12T00:45:57;25.88;;;16.65;;
64623;SDS011;51031;50.912;9.242;2022-09-12T00:46:19;22.77;;;14.13;;
64623;SDS011;51031;50.912;9.242;2022-09-12T00:46:44;39.67;;;28.48;;
64623;SDS011;51031;50.912;9.242;2022-09-12T00:47:04;41.85;;;29.10;;
64623;SDS011;51031;50.912;9.242;2022-09-12T00:47:27;32.95;;;22.25;;
64623;SDS011;51031;50.912;9.242;2022-09-12T00:47:45;48.58;;;34.35;;
64623;SDS011;51031;50.912;9.242;2022-09-12T00:48:01;46.70;;;32.80;;
64623;SDS011;51031;50.912;9.242;2022-09-12T00:48:20;37.60;;;26.25;;
64623;SDS011;51031;50.912;9.242;2022-09-12T00:48:41;27.40;;;18.00;;
64623;SDS011;51031;50.912;9.242;2022-09-12T00:49:02;20.48;;;13.35;;
64623;SDS011;51031;50.912;9.242;2022-09-12T00:49:22;38.00;;;26.52;;
64623;SDS011;51031;50.912;9.242;2022-09-12T00:49:42;31.45;;;22.75;;
64623;SDS011;51031;50.912;9.242;2022-09-12T00:50:03;37.75;;;25.73;;
64623;SDS011;51031;50.912;9.242;2022-09-12T00:50:22;32.08;;;22.20;;
64623;SDS011;51031;50.912;9.242;2022-09-12T00:50:40;21.63;;;14.13;;
64623;SDS011;51031;50.912;9.242;2022-09-12T00:50:56;40.65;;;26.70;;
64623;SDS011;51031;50.912;9.242;2022-09-12T00:51:12;37.20;;;25.60;;
64623;SDS011;51031;50.912;9.242;2022-09-12T00:51:28;14.00;;;8.20;;
64623;SDS011;51031;50.912;9.242;2022-09-12T00:51:50;19.60;;;9.07;;
64623;SDS011;51031;50.912;9.242;2022-09-12T00:52:09;27.65;;;18.15;;
64623;SDS011;51031;50.912;9.242;2022-09-12T00:52:28;23.58;;;12.95;;
64623;SDS011;51031;50.912;9.242;2022-09-12T00:52:48;26.52;;;15.15;;
64623;SDS011;51031;50.912;9.242;2022-09-12T00:53:06;26.67;;;10.55;;
64623;SDS011;51031;50.912;9.242;2022-09-12T00:53:24;22.08;;;7.88;;
64623;SDS011;51031;50.912;9.242;2022-09-12T00:53:43;25.60;;;9.63;;
64623;SDS011;51031;50.912;9.242;2022-09-12T00:54:04;38.75;;;5.53;;
64623;SDS011;51031;50.912;9.242;2022-09-12T00:54:23;44.70;;;6.25;;
64623;SDS011;51031;50.912;9.242;2022-09-12T00:54:42;44.03;;;6.28;;
64623;SDS011;51031;50.912;9.242;2022-09-12T00:55:04;38.30;;;6.00;;
64623;SDS011;51031;50.912;9.242;2022-09-12T00:55:24;46.28;;;6.25;;
64623;SDS011;51031;50.912;9.242;2022-09-12T00:55:42;59.10;;;6.72;;
64623;SDS011;51031;50.912;9.242;2022-09-12T00:56:03;94.80;;;8.23;;
64623;SDS011;51031;50.912;9.242;2022-09-12T00:56:19;69.97;;;7.30;;
64623;SDS011;51031;50.912;9.242;2022-09-12T00:56:38;56.88;;;6.68;;
64623;SDS011;51031;50.912;9.242;2022-09-12T00:56:56;31.75;;;6.00;;
64623;SDS011;51031;50.912;9.242;2022-09-12T00:57:15;19.88;;;11.35;;
64623;SDS011;51031;50.912;9.242;2022-09-12T00:57:36;42.33;;;20.92;;
64623;SDS011;51031;50.912;9.242;2022-09-12T00:57:58;47.47;;;13.43;;
64623;SDS011;51031;50.912;9.242;2022-09-12T00:58:18;34.75;;;19.73;;
64623;SDS011;51031;50.912;9.242;2022-09-12T00:58:38;25.10;;;11.85;;
64623;SDS011;51031;50.912;9.242;2022-09-12T00:58:59;25.02;;;12.88;;
64623;SDS011;51031;50.912;9.242;2022-09-12T00:59:19;32.38;;;14.93;;
64623;SDS011;51031;50.912;9.242;2022-09-12T00:59:38;32.33;;;6.85;;
64623;SDS011;51031;50.912;9.242;2022-09-12T00:59:58;25.65;;;6.82;;
64623;SDS011;51031;50.912;9.242;2022-09-12T01:00:19;39.75;;;8.07;;
64623;SDS011;51031;50.912;9.242;2022-09-12T01:00:37;37.55;;;10.13;;
64623;SDS011;51031;50.912;9.242;2022-09-12T01:00:53;38.83;;;9.50;;
64623;SDS011;51031;50.912;9.242;2022-09-12T01:01:09;30.70;;;9.40;;
64623;SDS011;51031;50.912;9.242;2022-09-12T01:01:25;25.50;;;7.63;;
64623;SDS011;51031;50.912;9.242;2022-09-12T01:01:42;28.13;;;10.45;;
64623;SDS011;51031;50.912;9.242;2022-09-12T01:01:59;33.70;;;12.13;;
64623;SDS011;51031;50.912;9.242;2022-09-12T01:02:15;37.33;;;8.37;;
64623;SDS011;51031;50.912;9.242;2022-09-12T01:02:32;42.00;;;15.68;;
64623;SDS011;51031;50.912;9.242;2022-09-12T01:02:49;32.55;;;16.75;;
64623;SDS011;51031;50.912;9.242;2022-09-12T01:03:08;32.33;;;13.07;;
64623;SDS011;51031;50.912;9.242;2022-09-12T01:03:27;34.38;;;9.90;;
64623;SDS011;51031;50.912;9.242;2022-09-12T01:03:43;37.53;;;9.73;;
64623;SDS011;51031;50.912;9.242;2022-09-12T01:03:59;39.92;;;17.30;;
64623;SDS011;51031;50.912;9.242;2022-09-12T01:04:16;38.60;;;20.52;;
64623;SDS011;51031;50.912;9.242;2022-09-12T01:04:33;33.45;;;14.90;;
64623;SDS011;51031;50.912;9.242;2022-09-12T01:04:51;28.58;;;12.38;;
64623;SDS011;51031;50.912;9.242;2022-09-12T01:05:08;30.88;;;16.92;;
64623;SDS011;51031;50.912;9.242;2022-09-12T01:05:24;34.55;;;11.38;;
64623;SDS011;51031;50.912;9.242;2022-09-12T01:05:43;31.02;;;9.82;;
64623;SDS011;51031;50.912;9.242;2022-09-12T01:06:08;33.10;;;7.43;;
64623;SDS011;51031;50.912;9.242;2022-09-12T01:06:32;37.78;;;8.63;;
64623;SDS011;51031;50.912;9.242;2022-09-12T01:06:52;49.03;;;6.93;;
64623;SDS011;51031;50.912;9.242;2022-09-12T01:07:10;36.92;;;10.23;;
64623;SDS011;51031;50.912;9.242;2022-09-12T01:07:27;45.95;;;7.95;;
64623;SDS011;51031;50.912;9.242;2022-09-12T01:07:43;55.22;;;6.80;;
64623;SDS011;51031;50.912;9.242;2022-09-12T01:08:02;56.42;;;10.23;;
64623;SDS011;51031;50.912;9.242;2022-09-12T01:08:20;55.28;;;12.20;;
64623;SDS011;51031;50.912;9.242;2022-09-12T01:08:37;48.03;;;13.65;;
64623;SDS011;51031;50.912;9.242;2022-09-12T01:08:53;40.17;;;22.95;;
64623;SDS011;51031;50.912;9.242;2022-09-12T01:09:11;38.75;;;22.15;;
64623;SDS011;51031;50.912;9.242;2022-09-12T01:09:31;41.30;;;10.45;;
64623;SDS011;51031;50.912;9.242;2022-09-12T01:09:47;49.88;;;6.85;;
64623;SDS011;51031;50.912;9.242;2022-09-12T01:10:03;50.38;;;6.38;;
64623;SDS011;51031;50.912;9.242;2022-09-12T01:10:21;55.65;;;6.47;;
64623;SDS011;51031;50.912;9.242;2022-09-12T01:10:39;44.80;;;11.32;;
64623;SDS011;51031;50.912;9.242;2022-09-12T01:10:56;37.58;;;21.23;;
64623;SDS011;51031;50.912;9.242;2022-09-12T01:11:12;35.85;;;22.52;;
64623;SDS011;51031;50.912;9.242;2022-09-12T01:11:30;27.50;;;10.73;;
64623;SDS011;51031;50.912;9.242;2022-09-12T01:11:47;41.22;;;6.22;;
64623;SDS011;51031;50.912;9.242;2022-09-12T01:12:04;88.75;;;7.07;;
64623;SDS011;51031;50.912;9.242;2022-09-12T01:12:21;95.60;;;7.10;;
64623;SDS011;51031;50.912;9.242;2022-09-12T01:12:37;92.57;;;7.35;;
64623;SDS011;51031;50.912;9.242;2022-09-12T01:12:55;89.93;;;7.15;;
64623;SDS011;51031;50.912;9.242;2022-09-12T01:13:11;51.63;;;9.57;;
64623;SDS011;51031;50.912;9.242;2022-09-12T01:13:28;45.67;;;10.00;;
64623;SDS011;51031;50.912;9.242;2022-09-12T01:13:44;69.63;;;9.90;;
64623;SDS011;51031;50.912;9.242;2022-09-12T01:14:00;81.38;;;9.35;;
64623;SDS011;51031;50.912;9.242;2022-09-12T01:14:16;60.13;;;5.77;;
64623;SDS011;51031;50.912;9.242;2022-09-12T01:14:33;43.95;;;5.63;;
64623;SDS011;51031;50.912;9.242;2022-09-12T01:14:50;50.47;;;8.88;;
64623;SDS011;51031;50.912;9.242;2022-09-12T01:15:06;55.60;;;8.15;;
64623;SDS011;51031;50.912;9.242;2022-09-12T01:15:22;36.13;;;9.30;;
64623;SDS011;51031;50.912;9.242;2022-09-12T01:15:38;35.42;;;18.70;;
64623;SDS011;51031;50.912;9.242;2022-09-12T01:15:54;33.88;;;20.50;;
64623;SDS011;51031;50.912;9.242;2022-09-12T01:16:13;24.05;;;16.70;;
64623;SDS011;51031;50.912;9.242;2022-09-12T01:16:30;24.25;;;16.08;;
64623;SDS011;51031;50.912;9.242;2022-09-12T01:16:49;25.08;;;16.02;;
64623;SDS011;51031;50.912;9.242;2022-09-12T01:17:05;24.15;;;14.50;;
64623;SDS011;51031;50.912;9.242;2022-09-12T01:17:22;27.35;;;15.52;;
64623;SDS011;51031;50.912;9.242;2022-09-12T01:17:47;26.02;;;12.35;;
64623;SDS011;51031;50.912;9.242;2022-09-12T01:18:12;25.45;;;10.50;;
64623;SDS011;51031;50.912;9.242;2022-09-12T01:18:40;27.60;;;14.30;;
64623;SDS011;51031;50.912;9.242;2022-09-12T01:19:09;33.50;;;20.73;;
64623;SDS011;51031;50.912;9.242;2022-09-12T01:19:46;38.83;;;26.90;;
64623;SDS011;51031;50.912;9.242;2022-09-12T01:20:22;47.25;;;32.70;;
64623;SDS011;51031;50.912;9.242;2022-09-12T01:20:53;30.48;;;19.55;;
64623;SDS011;51031;50.912;9.242;2022-09-12T01:21:17;25.65;;;15.00;;
64623;SDS011;51031;50.912;9.242;2022-09-12T01:21:39;22.48;;;9.65;;
64623;SDS011;51031;50.912;9.242;2022-09-12T01:22:06;31.63;;;17.80;;
64623;SDS011;51031;50.912;9.242;2022-09-12T01:22:50;33.08;;;16.55;;
64623;SDS011;51031;50.912;9.242;2022-09-12T01:23:27;26.20;;;18.00;;
64623;SDS011;51031;50.912;9.242;2022-09-12T01:24:16;27.52;;;6.82;;
64623;SDS011;51031;50.912;9.242;2022-09-12T01:24:52;22.10;;;9.18;;
64623;SDS011;51031;50.912;9.242;2022-09-12T01:25:16;30.95;;;5.10;;
64623;SDS011;51031;50.912;9.242;2022-09-12T01:25:45;27.90;;;10.15;;
64623;SDS011;51031;50.912;9.242;2022-09-12T01:26:22;18.63;;;6.75;;
64623;SDS011;51031;50.912;9.242;2022-09-12T01:27:11;16.08;;;8.27;;
64623;SDS011;51031;50.912;9.242;2022-09-12T01:27:39;13.50;;;5.97;;
64623;SDS011;51031;50.912;9.242;2022-09-12T01:28:20;27.55;;;8.05;;
64623;SDS011;51031;50.912;9.242;2022-09-12T01:28:55;22.52;;;5.30;;
64623;SDS011;51031;50.912;9.242;2022-09-12T01:29:26;22.38;;;11.88;;
64623;SDS011;51031;50.912;9.242;2022-09-12T01:29:58;32.50;;;20.23;;
64623;SDS011;51031;50.912;9.242;2022-09-12T01:30:42;34.95;;;23.42;;
64623;SDS011;51031;50.912;9.242;2022-09-12T01:31:00;20.35;;;11.55;;
64623;SDS011;51031;50.912;9.242;2022-09-12T01:31:20;15.05;;;9.57;;
64623;SDS011;51031;50.912;9.242;2022-09-12T01:31:44;28.83;;;18.80;;
64623;SDS011;51031;50.912;9.242;2022-09-12T01:32:04;17.20;;;7.32;;
64623;SDS011;51031;50.912;9.242;2022-09-12T01:32:27;10.65;;;5.03;;
64623;SDS011;51031;50.912;9.242;2022-09-12T01:32:53;13.57;;;8.88;;
64623;SDS011;51031;50.912;9.242;2022-09-12T01:34:12;17.38;;;4.97;;
64623;SDS011;51031;50.912;9.242;2022-09-12T01:34:36;14.73;;;4.30;;
64623;SDS011;51031;50.912;9.242;2022-09-12T01:35:01;11.85;;;4.30;;
64623;SDS011;51031;50.912;9.242;2022-09-12T01:35:23;35.25;;;4.07;;
64623;SDS011;51031;50.912;9.242;2022-09-12T01:35:44;42.40;;;4.25;;
64623;SDS011;51031;50.912;9.242;2022-09-12T01:36:11;31.15;;;3.95;;
64623;SDS011;51031;50.912;9.242;2022-09-12T01:36:41;36.70;;;3.72;;
64623;SDS011;51031;50.912;9.242;2022-09-12T01:37:06;29.55;;;3.75;;
64623;SDS011;51031;50.912;9.242;2022-09-12T01:37:28;34.15;;;5.03;;
64623;SDS011;51031;50.912;9.242;2022-09-12T01:37:53;23.48;;;5.85;;
64623;SDS011;51031;50.912;9.242;2022-09-12T01:38:22;18.30;;;4.22;;
64623;SDS011;51031;50.912;9.242;2022-09-12T01:38:45;19.92;;;12.13;;
64623;SDS011;51031;50.912;9.242;2022-09-12T01:39:04;23.63;;;15.48;;
64623;SDS011;51031;50.912;9.242;2022-09-12T01:39:26;12.43;;;6.97;;
64623;SDS011;51031;50.912;9.242;2022-09-12T01:39:48;19.10;;;9.10;;
64623;SDS011;51031;50.912;9.242;2022-09-12T01:40:08;16.80;;;7.75;;
64623;SDS011;51031;50.912;9.242;2022-09-12T01:40:32;11.10;;;6.35;;
64623;SDS011;51031;50.912;9.242;2022-09-12T01:40:59;13.43;;;8.25;;
64623;SDS011;51031;50.912;9.242;2022-09-12T01:41:24;7.93;;;3.47;;
64623;SDS011;51031;50.912;9.242;2022-09-12T01:41:47;7.70;;;4.13;;
64623;SDS011;51031;50.912;9.242;2022-09-12T01:42:09;6.35;;;3.70;;
64623;SDS011;51031;50.912;9.242;2022-09-12T01:42:31;7.35;;;3.72;;
64623;SDS011;51031;50.912;9.242;2022-09-12T01:42:55;6.80;;;3.70;;
64623;SDS011;51031;50.912;9.242;2022-09-12T01:43:26;10.48;;;3.45;;
64623;SDS011;51031;50.912;9.242;2022-09-12T01:43:48;19.00;;;3.70;;
64623;SDS011;51031;50.912;9.242;2022-09-12T01:44:13;16.63;;;3.55;;
64623;SDS011;51031;50.912;9.242;2022-09-12T01:44:43;21.83;;;4.47;;
64623;SDS011;51031;50.912;9.242;2022-09-12T01:45:05;22.05;;;6.15;;
64623;SDS011;51031;50.912;9.242;2022-09-12T01:45:29;23.83;;;6.75;;
64623;SDS011;51031;50.912;9.242;2022-09-12T01:45:50;39.80;;;7.70;;
64623;SDS011;51031;50.912;9.242;2022-09-12T01:46:13;46.90;;;4.90;;
64623;SDS011;51031;50.912;9.242;2022-09-12T01:46:32;26.98;;;3.67;;
64623;SDS011;51031;50.912;9.242;2022-09-12T01:46:58;36.35;;;3.90;;
64623;SDS011;51031;50.912;9.242;2022-09-12T01:47:24;37.40;;;4.00;;
64623;SDS011;51031;50.912;9.242;2022-09-12T01:47:46;26.38;;;4.72;;
64623;SDS011;51031;50.912;9.242;2022-09-12T01:48:06;25.55;;;4.93;;
64623;SDS011;51031;50.912;9.242;2022-09-12T01:48:31;22.77;;;5.47;;
64623;SDS011;51031;50.912;9.242;2022-09-12T01:48:53;20.55;;;8.27;;
64623;SDS011;51031;50.912;9.242;2022-09-12T01:49:14;18.90;;;6.30;;
64623;SDS011;51031;50.912;9.242;2022-09-12T01:49:36;25.77;;;13.20;;
64623;SDS011;51031;50.912;9.242;2022-09-12T01:49:56;28.27;;;10.70;;
64623;SDS011;51031;50.912;9.242;2022-09-12T01:50:15;18.77;;;8.68;;
64623;SDS011;51031;50.912;9.242;2022-09-12T01:50:36;12.90;;;3.40;;
64623;SDS011;51031;50.912;9.242;2022-09-12T01:51:00;16.90;;;3.47;;
64623;SDS011;51031;50.912;9.242;2022-09-12T01:51:22;17.20;;;3.40;;
64623;SDS011;51031;50.912;9.242;2022-09-12T01:51:45;18.92;;;3.90;;
64623;SDS011;51031;50.912;9.242;2022-09-12T01:52:09;33.45;;;4.70;;
64623;SDS011;51031;50.912;9.242;2022-09-12T01:52:32;35.13;;;4.32;;
64623;SDS011;51031;50.912;9.242;2022-09-12T01:52:53;31.08;;;4.35;;
64623;SDS011;51031;50.912;9.242;2022-09-12T01:53:14;26.40;;;4.60;;
64623;SDS011;51031;50.912;9.242;2022-09-12T01:53:35;36.47;;;5.65;;
64623;SDS011;51031;50.912;9.242;2022-09-12T01:53:57;18.33;;;5.07;;
64623;SDS011;51031;50.912;9.242;2022-09-12T01:54:18;17.30;;;4.35;;
64623;SDS011;51031;50.912;9.242;2022-09-12T01:54:40;26.50;;;3.80;;
64623;SDS011;51031;50.912;9.242;2022-09-12T01:55:05;38.83;;;4.07;;
64623;SDS011;51031;50.912;9.242;2022-09-12T01:55:27;42.47;;;4.90;;
64623;SDS011;51031;50.912;9.242;2022-09-12T01:55:47;35.25;;;4.68;;
64623;SDS011;51031;50.912;9.242;2022-09-12T01:56:07;46.05;;;5.28;;
64623;SDS011;51031;50.912;9.242;2022-09-12T01:56:26;62.42;;;5.43;;